WARNING - Change wsUserSettings.php: $SITE["topfolder"] from : weather28m/ to: ./
Welkom op onze website -
Gegevens meteorieten voor 2019 onder zon aarde ruimte


Webcam zuid Meer informatie Webcam zuid


Webcam noord Meer informatie Webcam noord


Onweer radar Meer informatie blitzortung!


Regen radar Meer informatie rain snow radar


Bezoek onze andere website:

Template documentation
and downloads

Onze andere website


U vindt ons ook hier:

Het Weer Aktueel

UK Metoffice

European Weather Network

WeatherCloud

Weather Underground

Austria Weather Network

AWEKAS

Citizen Weather Observer Program (CWOP)

HAMweather, WeatherForYou, PWS Weather

Wetterpage 24

Roosendaal op internet

VWKWEB

RadioZuidWestFM



Extreme hitte van: 25-08-2019 13:00 tot: 27-08-2019 13:00 waarschuwing voor: Extreme hitte niveau: Geel info button
Aanhoudende hitte, Het Nationaal Hitteplan van het RIVM is actief.Er is sprake van aanhoudende hitte.Besteed extra zorg en aandacht aan kwetsbare mensen in uw omgeving.Met name ouderen en mensen met een chronische aandoening wordt geadviseerd maatregelen te nemen: drink voldoende, houd uzelf en uw woning koel.

METAR rapporten vliegvelden

   
EHWO - Bergen op Zoom
Gewijzigd: 25-08-2019 16:25
Bewolking  
Bewolking  
   Wind: varieert 11.1 km/h
Wind: varieert 11.1 km/h
Temperatuur: 31°C
Dauwpunt: 13°C
Vochtigheid: 33%
Barometer: 1017 hPa
Bewolking: Bewolking
Zicht: meer dan 10 km
Bewolking: Bewolking 25000 ft
EHWO 251425Z AUTO VRB06KT 9999 OVC250 31/13 Q1017 BLU
EHWO - Woensdrecht
Gewijzigd: 25-08-2019 16:25
Bewolking  
Bewolking  
   Wind: varieert 11.1 km/h
Wind: varieert 11.1 km/h
Temperatuur: 31°C
Dauwpunt: 13°C
Vochtigheid: 33%
Barometer: 1017 hPa
Bewolking: Bewolking
Zicht: meer dan 10 km
Bewolking: Bewolking 25000 ft
EHWO 251425Z AUTO VRB06KT 9999 OVC250 31/13 Q1017 BLU
EHWO - Steenbergen
Gewijzigd: 25-08-2019 16:25
Bewolking  
Bewolking  
   Wind: varieert 11.1 km/h
Wind: varieert 11.1 km/h
Temperatuur: 31°C
Dauwpunt: 13°C
Vochtigheid: 33%
Barometer: 1017 hPa
Bewolking: Bewolking
Zicht: meer dan 10 km
Bewolking: Bewolking 25000 ft
EHWO 251425Z AUTO VRB06KT 9999 OVC250 31/13 Q1017 BLU
EHWO - Oud-Gastel
Gewijzigd: 25-08-2019 16:25
Bewolking  
Bewolking  
   Wind: varieert 11.1 km/h
Wind: varieert 11.1 km/h
Temperatuur: 31°C
Dauwpunt: 13°C
Vochtigheid: 33%
Barometer: 1017 hPa
Bewolking: Bewolking
Zicht: meer dan 10 km
Bewolking: Bewolking 25000 ft
EHWO 251425Z AUTO VRB06KT 9999 OVC250 31/13 Q1017 BLU
EHWO - Oudenbosch
Gewijzigd: 25-08-2019 16:25
Bewolking  
Bewolking  
   Wind: varieert 11.1 km/h
Wind: varieert 11.1 km/h
Temperatuur: 31°C
Dauwpunt: 13°C
Vochtigheid: 33%
Barometer: 1017 hPa
Bewolking: Bewolking
Zicht: meer dan 10 km
Bewolking: Bewolking 25000 ft
EHWO 251425Z AUTO VRB06KT 9999 OVC250 31/13 Q1017 BLU
EHWO - Rucphen
Gewijzigd: 25-08-2019 16:25
Bewolking  
Bewolking  
   Wind: varieert 11.1 km/h
Wind: varieert 11.1 km/h
Temperatuur: 31°C
Dauwpunt: 13°C
Vochtigheid: 33%
Barometer: 1017 hPa
Bewolking: Bewolking
Zicht: meer dan 10 km
Bewolking: Bewolking 25000 ft
EHWO 251425Z AUTO VRB06KT 9999 OVC250 31/13 Q1017 BLU
EHWO - Bergen op Zoom
Gewijzigd: 25-08-2019 16:25
Bewolking  
Bewolking  
   Wind: varieert 11.1 km/h
Wind: varieert 11.1 km/h
Temperatuur: 31°C
Dauwpunt: 13°C
Vochtigheid: 33%
Barometer: 1017 hPa
Bewolking: Bewolking
Zicht: meer dan 10 km
Bewolking: Bewolking 25000 ft
EHWO 251425Z AUTO VRB06KT 9999 OVC250 31/13 Q1017 BLU
EHWO - Fijnaart
Gewijzigd: 25-08-2019 16:25
Bewolking  
Bewolking  
   Wind: varieert 11.1 km/h
Wind: varieert 11.1 km/h
Temperatuur: 31°C
Dauwpunt: 13°C
Vochtigheid: 33%
Barometer: 1017 hPa
Bewolking: Bewolking
Zicht: meer dan 10 km
Bewolking: Bewolking 25000 ft
EHWO 251425Z AUTO VRB06KT 9999 OVC250 31/13 Q1017 BLU
EHWO - Ossendrecht
Gewijzigd: 25-08-2019 16:25
Bewolking  
Bewolking  
   Wind: varieert 11.1 km/h
Wind: varieert 11.1 km/h
Temperatuur: 31°C
Dauwpunt: 13°C
Vochtigheid: 33%
Barometer: 1017 hPa
Bewolking: Bewolking
Zicht: meer dan 10 km
Bewolking: Bewolking 25000 ft
EHWO 251425Z AUTO VRB06KT 9999 OVC250 31/13 Q1017 BLU

Script ontwikkeld door  Saratoga-weather.org Aangepast voor de template door  Weerstation Leuven

Apparatuur in gebruik:

Weerstation
Davis VP2

Weerprogramma
Meteobridge

Weercomputer
Shuttle

Webleverancier
WeservIT

Davis VP2

Meteobridge

Shuttle

WeservIT